sensor_id;sensor_type;location;lat;lon;timestamp;pressure;altitude;pressure_sealevel;temperature;humidity
79780;BME280;69258;52.050;10.334;2024-03-17T00:09:19;100398.25;;;18.65;48.47
79780;BME280;69258;52.050;10.334;2024-03-17T00:24:21;100392.41;;;18.61;48.25
79780;BME280;69258;52.050;10.334;2024-03-17T00:39:22;100407.13;;;18.57;48.31
79780;BME280;69258;52.050;10.334;2024-03-17T00:54:23;100418.75;;;18.64;48.06
79780;BME280;69258;52.050;10.334;2024-03-17T01:09:24;100416.72;;;18.66;48.25
79780;BME280;69258;52.050;10.334;2024-03-17T01:24:26;100402.88;;;18.71;48.09
79780;BME280;69258;52.050;10.334;2024-03-17T01:39:26;100399.00;;;18.73;47.54
79780;BME280;69258;52.050;10.334;2024-03-17T01:54:27;100391.47;;;18.77;47.80
79780;BME280;69258;52.050;10.334;2024-03-17T02:09:29;100397.50;;;18.79;47.73
79780;BME280;69258;52.050;10.334;2024-03-17T02:24:31;100393.63;;;18.82;47.76
79780;BME280;69258;52.050;10.334;2024-03-17T02:39:31;100398.81;;;18.83;47.42
79780;BME280;69258;52.050;10.334;2024-03-17T02:54:32;100393.94;;;18.87;47.69
79780;BME280;69258;52.050;10.334;2024-03-17T03:09:33;100388.44;;;18.88;47.75
79780;BME280;69258;52.050;10.334;2024-03-17T03:24:35;100393.44;;;18.91;47.77
79780;BME280;69258;52.050;10.334;2024-03-17T03:39:36;100378.03;;;18.93;47.92
79780;BME280;69258;52.050;10.334;2024-03-17T03:54:38;100376.88;;;18.96;47.68
79780;BME280;69258;52.050;10.334;2024-03-17T04:09:40;100384.69;;;18.97;47.47
79780;BME280;69258;52.050;10.334;2024-03-17T04:24:43;100388.84;;;19.00;47.39
79780;BME280;69258;52.050;10.334;2024-03-17T04:39:46;100375.50;;;19.00;47.21
79780;BME280;69258;52.050;10.334;2024-03-17T04:54:49;100385.19;;;19.01;47.09
79780;BME280;69258;52.050;10.334;2024-03-17T05:09:49;100386.84;;;19.02;47.51
79780;BME280;69258;52.050;10.334;2024-03-17T05:24:50;100410.72;;;19.03;47.28
79780;BME280;69258;52.050;10.334;2024-03-17T05:39:51;100432.72;;;19.05;47.01
79780;BME280;69258;52.050;10.334;2024-03-17T05:54:53;100448.59;;;19.07;47.30
79780;BME280;69258;52.050;10.334;2024-03-17T06:09:54;100454.56;;;19.09;46.95
79780;BME280;69258;52.050;10.334;2024-03-17T06:24:56;100454.22;;;19.12;47.15
79780;BME280;69258;52.050;10.334;2024-03-17T06:39:57;100458.56;;;19.13;47.01
79780;BME280;69258;52.050;10.334;2024-03-17T06:54:59;100460.03;;;19.15;47.17
79780;BME280;69258;52.050;10.334;2024-03-17T07:10:00;100450.03;;;19.17;46.47
79780;BME280;69258;52.050;10.334;2024-03-17T07:25:01;100443.31;;;19.21;46.91
79780;BME280;69258;52.050;10.334;2024-03-17T07:40:04;100449.31;;;19.23;46.82
79780;BME280;69258;52.050;10.334;2024-03-17T07:55:06;100448.13;;;19.26;46.82
79780;BME280;69258;52.050;10.334;2024-03-17T08:10:08;100440.59;;;19.30;46.72
79780;BME280;69258;52.050;10.334;2024-03-17T08:25:09;100442.25;;;19.31;46.92
79780;BME280;69258;52.050;10.334;2024-03-17T08:40:11;100442.25;;;19.31;46.74
79780;BME280;69258;52.050;10.334;2024-03-17T08:55:12;100418.88;;;19.33;47.00
79780;BME280;69258;52.050;10.334;2024-03-17T09:10:12;100401.81;;;19.34;46.82
79780;BME280;69258;52.050;10.334;2024-03-17T09:25:14;100423.50;;;19.39;46.91
79780;BME280;69258;52.050;10.334;2024-03-17T09:40:16;100425.66;;;19.43;46.80
79780;BME280;69258;52.050;10.334;2024-03-17T09:55:17;100410.94;;;19.47;46.96
79780;BME280;69258;52.050;10.334;2024-03-17T10:10:21;100406.69;;;19.53;46.52
79780;BME280;69258;52.050;10.334;2024-03-17T10:25:22;100416.69;;;19.59;47.32
79780;BME280;69258;52.050;10.334;2024-03-17T10:40:24;100427.66;;;19.64;46.76
79780;BME280;69258;52.050;10.334;2024-03-17T10:55:26;100420.94;;;19.68;47.07
79780;BME280;69258;52.050;10.334;2024-03-17T11:10:29;100401.53;;;19.74;47.21
79780;BME280;69258;52.050;10.334;2024-03-17T11:40:32;100387.41;;;19.80;46.94
79780;BME280;69258;52.050;10.334;2024-03-17T11:55:34;100369.00;;;19.85;47.30
79780;BME280;69258;52.050;10.334;2024-03-17T12:10:47;100352.41;;;19.90;47.18
79780;BME280;69258;52.050;10.334;2024-03-17T12:25:48;100343.00;;;19.94;47.31
79780;BME280;69258;52.050;10.334;2024-03-17T12:40:51;100328.22;;;19.98;47.38
79780;BME280;69258;52.050;10.334;2024-03-17T12:55:55;100306.47;;;20.01;47.00
79780;BME280;69258;52.050;10.334;2024-03-17T13:10:55;100294.38;;;20.05;47.21
79780;BME280;69258;52.050;10.334;2024-03-17T13:25:57;100297.53;;;20.08;47.37
79780;BME280;69258;52.050;10.334;2024-03-17T13:40:57;100281.91;;;20.12;47.34
79780;BME280;69258;52.050;10.334;2024-03-17T13:55:58;100273.34;;;20.16;47.41
79780;BME280;69258;52.050;10.334;2024-03-17T14:10:59;100277.66;;;20.17;47.43
79780;BME280;69258;52.050;10.334;2024-03-17T14:26:00;100273.78;;;20.20;47.45
79780;BME280;69258;52.050;10.334;2024-03-17T14:41:01;100259.03;;;20.24;47.71
79780;BME280;69258;52.050;10.334;2024-03-17T14:56:02;100240.09;;;20.26;47.32
79780;BME280;69258;52.050;10.334;2024-03-17T15:11:05;100234.38;;;20.29;47.08
79780;BME280;69258;52.050;10.334;2024-03-17T15:26:07;100222.50;;;20.31;47.35
79780;BME280;69258;52.050;10.334;2024-03-17T15:41:10;100216.94;;;20.33;47.65
79780;BME280;69258;52.050;10.334;2024-03-17T15:56:11;100214.91;;;20.35;47.70
79780;BME280;69258;52.050;10.334;2024-03-17T16:11:15;100201.53;;;20.35;47.23
79780;BME280;69258;52.050;10.334;2024-03-17T16:26:17;100192.66;;;20.34;46.96
79780;BME280;69258;52.050;10.334;2024-03-17T16:41:18;100185.47;;;20.35;47.34
79780;BME280;69258;52.050;10.334;2024-03-17T16:56:20;100174.78;;;20.35;47.04
79780;BME280;69258;52.050;10.334;2024-03-17T17:11:20;100171.25;;;20.34;47.52
79780;BME280;69258;52.050;10.334;2024-03-17T17:26:23;100183.81;;;20.34;47.67
79780;BME280;69258;52.050;10.334;2024-03-17T17:41:25;100185.66;;;20.33;47.65
79780;BME280;69258;52.050;10.334;2024-03-17T17:56:26;100182.97;;;20.33;47.24
79780;BME280;69258;52.050;10.334;2024-03-17T18:11:28;100176.78;;;20.33;47.20
79780;BME280;69258;52.050;10.334;2024-03-17T18:26:28;100177.84;;;20.32;47.62
79780;BME280;69258;52.050;10.334;2024-03-17T18:41:29;100171.66;;;20.31;47.25
79780;BME280;69258;52.050;10.334;2024-03-17T18:56:29;100170.59;;;20.32;47.29
79780;BME280;69258;52.050;10.334;2024-03-17T19:11:30;100182.34;;;20.31;47.11
79780;BME280;69258;52.050;10.334;2024-03-17T19:26:32;100182.34;;;20.31;46.97
79780;BME280;69258;52.050;10.334;2024-03-17T19:41:33;100180.50;;;20.32;46.74
79780;BME280;69258;52.050;10.334;2024-03-17T19:56:35;100179.69;;;20.31;47.35
79780;BME280;69258;52.050;10.334;2024-03-17T20:11:35;100154.53;;;20.32;47.33
79780;BME280;69258;52.050;10.334;2024-03-17T20:26:37;100167.13;;;20.32;47.10
79780;BME280;69258;52.050;10.334;2024-03-17T20:41:37;100162.56;;;20.32;47.01
79780;BME280;69258;52.050;10.334;2024-03-17T20:56:38;100146.53;;;20.32;47.19
79780;BME280;69258;52.050;10.334;2024-03-17T21:11:38;100149.19;;;20.32;46.87
79780;BME280;69258;52.050;10.334;2024-03-17T21:26:40;100127.78;;;20.32;46.83
79780;BME280;69258;52.050;10.334;2024-03-17T21:41:41;100125.75;;;20.34;46.84
79780;BME280;69258;52.050;10.334;2024-03-17T21:56:41;100113.59;;;20.32;46.55
79780;BME280;69258;52.050;10.334;2024-03-17T22:11:43;100103.69;;;20.32;46.94
79780;BME280;69258;52.050;10.334;2024-03-17T22:26:44;100094.88;;;20.32;46.76
79780;BME280;69258;52.050;10.334;2024-03-17T22:41:45;100086.84;;;20.32;46.65
79780;BME280;69258;52.050;10.334;2024-03-17T22:56:45;100080.66;;;20.31;46.78
79780;BME280;69258;52.050;10.334;2024-03-17T23:11:46;100063.56;;;20.32;46.72
79780;BME280;69258;52.050;10.334;2024-03-17T23:26:48;100056.56;;;20.31;46.43
79780;BME280;69258;52.050;10.334;2024-03-17T23:41:48;100042.34;;;20.31;46.30
79780;BME280;69258;52.050;10.334;2024-03-17T23:56:49;100028.97;;;20.31;46.40
